Stations météo

réclame
Mon MeteoGroup
Le Puy, France (7471): Température de l'air & dewpoint: 15.10.2019 20:00:00 - 21.10.2019 20:00:00 (CEST)Le Puy, France (7471): Température de l'air 5cm: 15.10.2019 20:00:00 - 21.10.2019 20:00:00 (CEST)Le Puy, France (7471): Température de l'air -20cm & Température de l'air -100cm: 15.10.2019 20:00:00 - 21.10.2019 20:00:00 (CEST)Le Puy, France (7471): Vitesse du vent & gusts: 15.10.2019 20:00:00 - 21.10.2019 20:00:00 (CEST)Le Puy, France (7471): Direction du vent: 15.10.2019 20:00:00 - 21.10.2019 20:00:00 (CEST)Le Puy, France (7471): visibility: 15.10.2019 20:00:00 - 21.10.2019 20:00:00 (CEST)Le Puy, France (7471): Ensoleillement: 15.10.2019 20:00:00 - 21.10.2019 20:00:00 (CEST)Le Puy, France (7471): Quantités de précipitations: 15.10.2019 20:00:00 - 21.10.2019 20:00:00 (CEST)
Date & Time tt [°C] td [°C] tt 5cm [°C] tt -20cm [°C] tt -100cm [°C] ff [km/h] ff [knt] fx [km/h] fx [knt] dd vv [km] sd [min] rr [mm]
21.10.2019 20:00:00 - - - - - - - - - - - - -
21.10.2019 19:00:00 8,9 8,3 9,0 12,8 14,2 3 1 9 5 ENE 13 0 0,0
21.10.2019 18:00:00 9,1 8,2 9,3 12,8 14,2 6 3 16 8 NNE 13 0 2,0
21.10.2019 17:00:00 10,4 8,2 10,0 12,7 14,2 11 6 18 10 NE 13 0 0,0
21.10.2019 16:00:00 11,3 7,2 12,1 12,7 14,2 0 0 17 9 N 20 0 0,0
21.10.2019 15:00:00 11,4 7,9 12,9 12,7 14,2 9 5 13 7 E 20 0 0,0
21.10.2019 14:00:00 11,0 7,5 13,2 12,7 14,2 3 2 14 8 NE 20 2 0,0
21.10.2019 13:00:00 11,3 7,4 13,7 12,8 14,2 3 1 9 5 ESE 20 5 0,0
21.10.2019 12:00:00 10,0 7,2 11,7 12,8 14,2 4 2 10 5 N 20 1 0,0
21.10.2019 11:00:00 9,0 7,3 8,3 12,9 14,2 3 1 7 4 W 20 1 0,0
21.10.2019 10:00:00 7,0 5,9 6,0 13,0 14,2 0 0 6 3 N 20 0 0,0
21.10.2019 09:00:00 6,6 5,4 5,6 13,1 14,2 3 2 7 4 WNW 20 0 0,0
21.10.2019 08:00:00 7,3 5,6 5,4 13,2 14,2 2 1 11 6 S 20 0 0,0
21.10.2019 07:00:00 8,3 5,8 7,0 13,3 14,2 3 1 26 14 WNW 20 0 0,0
21.10.2019 06:00:00 8,9 6,2 7,0 13,4 14,3 15 8 27 14 WSW 20 0 0,0
21.10.2019 05:00:00 8,7 6,3 6,9 13,4 14,3 9 5 15 8 SW 20 0 0,0
21.10.2019 04:00:00 9,2 6,6 7,2 13,5 14,3 6 4 13 7 NNE 20 0 0,0
21.10.2019 03:00:00 9,5 6,8 8,4 13,5 14,3 6 3 31 17 NE 20 0 0,0
21.10.2019 02:00:00 9,8 6,7 9,5 13,5 14,2 17 9 39 21 WSW 20 0 0,0
21.10.2019 01:00:00 10,0 6,5 9,2 13,6 14,2 18 10 33 18 WSW 20 0 0,0
21.10.2019 00:00:00 10,7 8,1 9,7 13,6 14,3 19 10 33 18 W 20 0 0,0
20.10.2019 23:00:00 10,7 8,6 9,8 13,7 14,3 16 9 31 17 WSW 20 0 0,0
20.10.2019 22:00:00 10,4 9,6 9,6 13,7 14,3 6 4 11 6 W 11 0 1,6
20.10.2019 21:00:00 10,3 9,8 8,1 13,7 14,3 0 0 8 5 N 20 0 0,0
20.10.2019 20:00:00 11,1 9,5 10,4 13,6 14,3 3 2 23 13 S 20 0 0,0
20.10.2019 19:00:00 11,5 9,9 10,9 13,6 14,3 13 7 34 18 WSW 19 0 4,0
20.10.2019 18:00:00 11,9 10,1 10,7 13,6 14,3 27 15 58 32 W 3,5 0 4,8
20.10.2019 17:00:00 16,5 12,5 14,7 13,6 14,2 11 6 42 23 S 20 16 0,0
20.10.2019 16:00:00 14,5 13,4 14,2 13,5 14,3 5 3 19 11 E 15 0 0,2
20.10.2019 15:00:00 14,2 13,2 13,4 13,6 14,3 5 3 32 17 ENE 17 0 1,8
20.10.2019 14:00:00 14,1 12,7 13,3 13,6 14,3 20 11 38 20 SSE 8 0 4,4
20.10.2019 13:00:00 13,6 12,5 13,3 13,5 14,3 11 6 22 12 SSE 4,3 0 6,7
20.10.2019 12:00:00 14,4 12,3 13,6 13,5 14,3 11 6 51 27 S 7 0 1,6
20.10.2019 11:00:00 16,5 10,8 14,7 13,5 14,3 23 12 56 30 SSE 20 0 0,0
20.10.2019 10:00:00 16,1 10,6 15,5 13,6 14,3 26 14 50 27 SSE 20 0 0,0
20.10.2019 09:00:00 15,7 11,5 15,0 13,5 14,3 17 9 40 22 SE 20 0 0,0
20.10.2019 08:00:00 15,4 11,6 13,8 13,6 14,3 22 12 56 30 SSE 20 0 0,0
20.10.2019 07:00:00 15,1 11,3 14,3 13,6 14,3 23 12 59 32 SSE 20 0 0,0
20.10.2019 06:00:00 15,1 11,1 14,3 13,5 14,3 21 11 51 28 SSE 20 0 0,0
20.10.2019 05:00:00 14,8 10,8 14,3 13,5 14,3 16 9 45 24 SE 20 0 0,0
20.10.2019 04:00:00 15,1 11,1 14,5 13,6 14,3 18 10 37 20 SSE 20 0 0,0
20.10.2019 03:00:00 15,4 10,6 14,1 13,6 14,3 19 10 41 22 S 20 0 0,0
20.10.2019 02:00:00 15,6 11,8 15,2 13,5 14,3 19 10 53 29 SSE 20 0 0,0
20.10.2019 01:00:00 16,1 11,5 15,2 13,5 14,3 23 13 47 25 S 20 0 0,0
20.10.2019 00:00:00 15,8 11,2 15,1 13,5 14,3 23 12 53 29 SSE 20 0 0,0
19.10.2019 23:00:00 15,7 11,5 14,8 13,5 14,3 25 14 51 28 S 20 0 0,0
19.10.2019 22:00:00 15,9 11,9 15,2 13,4 14,3 18 10 53 29 SSE 20 0 0,0
19.10.2019 21:00:00 15,8 11,6 15,2 13,4 14,3 13 7 30 16 SSE 20 0 0,0
19.10.2019 20:00:00 15,7 11,9 14,2 13,3 14,3 18 10 29 16 SE 20 0 0,0
19.10.2019 19:00:00 15,2 10,4 14,1 13,2 14,3 7 4 24 13 SE 19 29 0,0
19.10.2019 18:00:00 16,8 9,9 17,3 13,1 14,3 12 6 40 22 SSE 20 22 0,0
19.10.2019 17:00:00 17,0 10,6 17,4 13,0 14,3 16 9 44 24 SSE 20 0 0,0
19.10.2019 16:00:00 17,5 11,3 18,3 13,0 14,3 23 12 49 26 SSE 20 16 0,0
19.10.2019 15:00:00 18,1 11,9 18,6 13,0 14,3 26 14 46 25 SSE 20 9 0,0
19.10.2019 14:00:00 18,0 12,0 18,7 13,0 14,3 19 10 39 21 S 20 8 0,0
19.10.2019 13:00:00 17,2 12,1 18,1 13,0 14,3 14 8 43 23 S 20 0 0,0
19.10.2019 12:00:00 16,1 12,1 15,3 12,9 14,3 17 9 36 19 SSE 20 0 0,0
19.10.2019 11:00:00 14,9 11,1 14,8 13,0 14,3 11 6 27 14 SSE 20 0 0,0
19.10.2019 10:00:00 14,5 10,9 14,1 13,0 14,3 9 5 21 12 SSE 20 0 0,0
19.10.2019 09:00:00 13,8 10,8 11,6 13,0 14,3 9 5 22 12 S 20 0 0,0
19.10.2019 08:00:00 12,2 10,1 10,3 13,0 14,3 3 1 9 5 WSW 20 0 0,0
19.10.2019 07:00:00 11,2 9,6 10,1 13,1 14,4 3 1 10 5 S 20 0 0,0
19.10.2019 06:00:00 11,7 9,4 10,5 13,1 14,3 5 3 13 7 WNW 20 0 0,0
19.10.2019 05:00:00 12,6 9,6 11,2 13,1 14,3 9 5 18 10 ESE 20 0 0,0
19.10.2019 04:00:00 12,2 9,4 10,8 13,2 14,4 5 3 11 6 ESE 20 0 0,0
19.10.2019 03:00:00 12,0 9,6 11,1 13,2 14,4 3 2 16 9 SE 20 0 0,0
19.10.2019 02:00:00 12,3 9,3 11,9 13,1 14,4 5 3 21 11 S 20 0 0,0
19.10.2019 01:00:00 12,6 9,8 12,0 13,1 14,4 7 4 15 8 SSE 20 0 0,0
19.10.2019 00:00:00 12,6 9,1 12,0 13,1 14,3 8 5 28 15 WSW 20 0 0,0
18.10.2019 23:00:00 12,9 9,5 11,3 13,1 14,4 16 9 36 20 S 20 0 0,0
18.10.2019 22:00:00 12,6 11,2 11,9 13,0 14,4 3 1 7 4 S 20 0 0,0
18.10.2019 21:00:00 12,9 11,0 12,0 13,0 14,4 4 2 6 3 SW 20 0 0,0
18.10.2019 20:00:00 13,3 10,5 12,4 12,9 14,3 0 0 19 11 N 20 0 0,0
18.10.2019 19:00:00 14,2 10,6 13,8 12,8 14,3 6 3 21 12 WSW 20 0 0,0
18.10.2019 18:00:00 15,1 10,7 15,1 12,7 14,4 9 5 15 8 SW 20 0 0,0
18.10.2019 17:00:00 15,6 11,6 14,4 12,7 14,4 6 3 14 7 S 20 0 0,0
18.10.2019 16:00:00 14,9 11,3 13,6 12,6 14,3 4 2 16 9 W 20 0 0,0
18.10.2019 15:00:00 14,8 11,8 13,4 12,6 14,4 8 4 14 8 SW 13 0 0,6
18.10.2019 14:00:00 15,3 11,3 14,3 12,6 14,4 8 4 18 10 WSW 20 0 0,0
18.10.2019 13:00:00 13,9 11,6 12,6 12,6 14,3 3 1 25 13 W 20 0 1,2
18.10.2019 12:00:00 15,1 10,7 15,4 12,6 14,4 8 4 21 11 S 20 0 0,0
18.10.2019 11:00:00 14,6 10,2 13,7 12,7 14,4 5 3 12 6 SSW 20 0 0,0
18.10.2019 10:00:00 13,2 9,6 11,1 12,8 14,4 7 4 16 9 W 20 0 0,0
18.10.2019 09:00:00 11,3 9,9 9,6 12,8 14,4 9 5 14 8 S 20 0 0,0
18.10.2019 08:00:00 10,8 8,9 8,8 12,9 14,4 5 3 12 6 SSW 16 0 0,0
18.10.2019 07:00:00 10,0 8,4 8,7 12,9 14,4 5 3 18 10 SSW 20 0 0,0
18.10.2019 06:00:00 10,7 8,8 9,1 12,9 14,4 5 3 10 5 S 20 0 0,0
18.10.2019 05:00:00 10,6 9,4 9,7 13,0 14,4 5 3 10 5 SW 20 0 0,0
18.10.2019 04:00:00 11,7 9,8 10,2 13,1 14,4 5 3 24 13 WSW 20 0 0,0
18.10.2019 03:00:00 11,3 10,2 4,0 13,1 14,4 11 6 23 12 S 20 0 0,0
18.10.2019 02:00:00 7,0 6,4 4,6 13,2 14,4 0 0 10 6 N 4,0 0 0,0
18.10.2019 01:00:00 8,3 7,5 6,2 13,2 14,4 3 1 13 7 SW 5 0 0,0
18.10.2019 00:00:00 9,6 9,0 7,9 13,2 14,4 7 4 14 7 SSW 20 0 0,0
17.10.2019 23:00:00 10,1 9,2 9,0 13,2 14,4 6 4 9 5 W 20 0 0,0
17.10.2019 22:00:00 10,8 9,9 7,7 13,2 14,4 5 3 10 5 SSW 20 0 0,0
17.10.2019 21:00:00 10,2 8,8 7,5 13,2 14,4 5 3 9 5 ENE 19 0 0,0
17.10.2019 20:00:00 12,4 9,9 11,0 13,2 14,4 4 2 23 12 SW 20 0 0,0
17.10.2019 19:00:00 13,6 10,6 12,5 13,2 14,4 14 8 24 13 SW 20 1 0,0
17.10.2019 18:00:00 12,8 11,5 12,5 13,1 14,4 4 2 9 5 S 20 0 0,2
17.10.2019 17:00:00 13,4 10,7 12,8 13,0 14,4 4 2 14 8 WSW 20 0 0,0
17.10.2019 16:00:00 13,8 10,4 13,9 13,0 14,4 8 4 34 18 SSE 20 0 0,0
17.10.2019 15:00:00 14,7 9,9 15,0 13,0 14,4 12 6 36 20 S 20 0 0,0
17.10.2019 14:00:00 14,6 8,8 15,4 13,0 14,4 14 8 46 25 S 20 0 0,0
17.10.2019 13:00:00 14,2 9,4 15,3 12,9 14,4 18 10 43 23 S 20 0 0,0
17.10.2019 12:00:00 14,9 8,6 16,4 13,0 14,4 20 11 46 25 S 20 30 0,0
17.10.2019 11:00:00 15,1 10,1 13,9 13,0 14,4 19 10 49 26 S 20 29 0,0
17.10.2019 10:00:00 13,3 8,6 13,5 13,0 14,4 13 7 38 20 SSE 20 7 0,0
17.10.2019 09:00:00 12,7 8,8 11,1 13,1 14,4 12 7 27 15 SSE 20 20 0,0
17.10.2019 08:00:00 11,5 7,8 10,7 13,2 14,4 9 5 20 11 SE 20 0 0,0
17.10.2019 07:00:00 11,6 8,3 11,3 13,3 14,4 9 5 23 12 SSE 20 0 0,0
17.10.2019 06:00:00 11,6 8,6 8,5 13,3 14,4 15 8 27 15 SSE 20 0 0,0
17.10.2019 05:00:00 8,7 6,8 7,1 13,4 14,4 0 0 10 5 N 20 0 0,0
17.10.2019 04:00:00 7,6 5,9 4,7 13,5 14,4 2 1 8 4 WSW 13 0 0,0
17.10.2019 03:00:00 8,7 6,1 5,8 13,5 14,4 3 2 11 6 S 20 0 0,0
17.10.2019 02:00:00 9,1 6,2 6,2 13,5 14,5 5 3 14 8 SSW 20 0 0,0
17.10.2019 01:00:00 9,0 6,3 7,3 13,5 14,5 5 3 23 12 SW 20 0 0,0
17.10.2019 00:00:00 10,7 7,4 9,4 13,5 14,4 11 6 25 14 S 20 0 0,0
16.10.2019 23:00:00 11,3 7,0 10,8 13,5 14,4 5 3 17 9 S 20 0 0,0
16.10.2019 22:00:00 11,5 7,6 11,1 13,5 14,4 5 3 17 9 S 20 0 0,0
16.10.2019 21:00:00 11,6 7,5 11,1 13,4 14,4 9 5 24 13 S 20 0 0,0
16.10.2019 20:00:00 12,3 7,6 12,1 13,3 14,4 10 5 22 12 S 20 0 0,0
16.10.2019 19:00:00 13,0 7,0 12,3 13,2 14,4 5 3 22 12 S 2,8 0 0,0
16.10.2019 18:00:00 16,5 6,3 17,7 13,0 14,4 7 4 23 12 S 20 58 0,0
16.10.2019 17:00:00 17,5 3,7 20,1 12,9 14,4 13 7 27 15 SSW 20 60 0,0
16.10.2019 16:00:00 17,8 3,6 21,5 12,8 14,4 13 7 29 16 WSW 20 60 0,0
16.10.2019 15:00:00 17,6 3,8 21,9 12,8 14,4 15 8 27 15 SW 20 60 0,0
16.10.2019 14:00:00 16,8 3,8 17,9 12,8 14,4 12 7 29 16 SSW 20 55 0,0
16.10.2019 13:00:00 15,5 4,8 19,3 12,8 14,4 14 8 29 16 SSW 20 60 0,0
16.10.2019 12:00:00 14,0 5,9 19,2 13,0 14,4 4 2 21 11 SSW 20 60 0,0
16.10.2019 11:00:00 9,5 6,0 14,9 13,1 14,4 4 2 9 5 ENE 20 60 0,0
16.10.2019 10:00:00 7,0 5,0 8,9 13,3 14,4 0 0 10 5 N 20 60 0,0
16.10.2019 09:00:00 4,2 3,6 -1,1 13,4 14,5 3 2 7 4 SSW 19 37 0,0
16.10.2019 08:00:00 1,2 0,5 -1,3 13,5 14,4 0 0 7 4 N 17 0 0,0
16.10.2019 07:00:00 2,4 1,8 0,0 13,7 14,4 5 3 13 7 WSW 20 0 0,0
16.10.2019 06:00:00 2,8 2,1 0,9 13,8 14,5 4 2 8 4 SW 20 0 0,0
16.10.2019 05:00:00 3,9 2,9 1,3 13,9 14,4 0 0 8 5 N 20 0 0,0
16.10.2019 04:00:00 5,0 3,8 2,7 14,0 14,4 4 2 12 6 SE 20 0 0,0
16.10.2019 03:00:00 6,8 4,5 4,3 14,2 14,5 8 4 13 7 WSW 20 0 0,0
16.10.2019 02:00:00 6,6 4,4 5,2 14,2 14,5 3 2 20 11 SE 20 0 0,0
16.10.2019 01:00:00 7,6 5,1 2,8 14,3 14,4 12 6 22 12 W 20 0 0,0
16.10.2019 00:00:00 7,5 4,6 4,5 14,4 14,4 5 3 19 10 WNW 20 0 0,0
15.10.2019 23:00:00 8,6 5,0 6,0 14,4 14,4 9 5 18 10 W 20 0 0,0
15.10.2019 22:00:00 7,0 4,5 5,4 14,5 14,5 5 3 13 7 SW 20 0 0,0
15.10.2019 21:00:00 8,1 4,9 6,3 14,5 14,5 3 2 15 8 SW 20 0 0,0
15.10.2019 20:00:00 8,2 4,4 7,2 14,5 14,5 5 3 12 7 SW 20 0 0,0

tt = Température de l'air
td = dewpoint
tt 5cm = Température de l'air 5cm
tt -20cm = Température de l'air -20cm
tt -100cm = Température de l'air -100cm
ff = Vitesse du vent
fx = gusts
dd = Direction du vent
vv = visibility
sd = Ensoleillement
rr = Quantités de précipitations

stations d'obs. à proximité